createdAt,value
2023-02-02T00:01:46.869Z,94262.60
2023-02-02T00:04:26.559Z,94271.51
2023-02-02T00:06:57.350Z,94277.93
2023-02-02T00:09:29.215Z,94294.90
2023-02-02T00:11:59.569Z,94301.88
2023-02-02T00:14:28.675Z,94310.56
2023-02-02T00:16:57.608Z,94318.80
2023-02-02T00:19:28.227Z,94319.33
2023-02-02T00:21:57.151Z,94326.19
2023-02-02T00:24:25.747Z,94334.89
2023-02-02T00:26:58.566Z,94333.42
2023-02-02T00:29:28.771Z,94335.61
2023-02-02T00:31:57.468Z,94336.05
2023-02-02T00:34:25.989Z,94346.55
2023-02-02T00:36:54.521Z,94350.16
2023-02-02T00:39:28.251Z,94357.62
2023-02-02T00:41:57.119Z,94357.45
2023-02-02T00:44:44.647Z,94364.05
2023-02-02T00:47:14.152Z,94363.44
2023-02-02T00:49:42.857Z,94375.20
2023-02-02T00:52:12.751Z,94370.73
2023-02-02T00:54:41.647Z,94379.89
2023-02-02T00:57:13.968Z,94386.83
2023-02-02T00:59:42.985Z,94392.45
2023-02-02T01:02:12.461Z,94393.06
2023-02-02T01:04:41.420Z,94394.67
2023-02-02T01:07:10.327Z,94396.08
2023-02-02T01:09:39.221Z,94392.67
2023-02-02T01:12:11.078Z,94397.46
2023-02-02T01:14:39.729Z,94401.14
2023-02-02T01:17:09.804Z,94408.64
2023-02-02T01:19:38.948Z,94408.23
2023-02-02T01:22:08.257Z,94414.34
2023-02-02T01:24:37.338Z,94429.60
2023-02-02T01:27:06.034Z,94437.81
2023-02-02T01:29:34.972Z,94461.95
2023-02-02T01:32:03.625Z,94515.13
2023-02-02T01:34:33.309Z,94532.13
2023-02-02T01:37:02.389Z,94550.84
2023-02-02T01:39:31.358Z,94559.90
2023-02-02T01:42:00.761Z,94565.13
2023-02-02T01:45:06.759Z,94578.75
2023-02-02T01:47:52.715Z,94570.85
2023-02-02T01:50:23.393Z,94583.92
2023-02-02T01:52:54.421Z,94600.92
2023-02-02T01:55:25.206Z,94612.21
2023-02-02T01:58:11.544Z,94623.64
2023-02-02T02:00:40.391Z,94622.30
2023-02-02T02:03:13.235Z,94628.73
2023-02-02T02:05:45.287Z,94633.15
2023-02-02T02:08:17.579Z,94641.92
2023-02-02T06:19:33.740Z,93978.45
2023-02-02T06:22:02.289Z,93701.42
2023-02-02T06:24:31.287Z,93934.59
2023-02-02T06:27:00.099Z,94093.64
2023-02-02T06:29:28.796Z,94212.69
2023-02-02T06:31:57.618Z,94298.67
2023-02-02T06:34:26.255Z,94373.93
2023-02-02T06:36:54.985Z,94431.86
2023-02-02T06:39:23.797Z,94479.88
2023-02-02T06:41:52.508Z,94529.39
2023-02-02T06:44:21.260Z,94561.49
2023-02-02T06:46:50.191Z,94594.84
2023-02-02T06:49:18.670Z,94620.52
2023-02-02T06:51:48.782Z,94647.15
2023-02-02T06:54:18.938Z,94660.34
2023-02-02T06:56:47.438Z,94674.58
2023-02-02T06:59:15.963Z,94688.70
2023-02-02T07:01:44.683Z,94709.13
2023-02-02T07:04:13.815Z,94719.54
2023-02-02T07:06:42.590Z,94728.46
2023-02-02T07:09:11.184Z,94745.55
2023-02-02T07:11:43.685Z,94761.89
2023-02-02T07:14:15.090Z,94770.65
2023-02-02T07:16:44.808Z,94787.15
2023-02-02T07:19:13.832Z,94806.11
2023-02-02T07:21:43.129Z,94804.98
2023-02-02T07:24:11.821Z,94811.54
2023-02-02T07:26:41.032Z,94824.13
2023-02-02T07:29:14.600Z,94836.13
2023-02-02T07:31:43.612Z,94846.77
2023-02-02T07:34:13.098Z,94864.58
2023-02-02T07:36:42.936Z,94869.13
2023-02-02T07:39:11.930Z,94890.27
2023-02-02T07:41:40.856Z,94893.94
2023-02-02T07:44:16.632Z,94908.27
2023-02-02T07:46:47.516Z,94929.20
2023-02-02T07:49:17.673Z,94941.92
2023-02-02T07:51:49.327Z,94947.48
2023-02-02T07:54:18.126Z,94951.12
2023-02-02T07:56:47.292Z,94963.23
2023-02-02T07:59:15.852Z,94968.54
2023-02-02T08:01:48.236Z,94974.08
2023-02-02T08:04:17.609Z,94971.55
2023-02-02T08:06:46.429Z,94979.92
2023-02-02T08:09:14.947Z,94978.14
2023-02-02T08:32:22.749Z,94863.70
2023-02-02T08:34:56.018Z,94890.12
2023-02-02T08:37:24.453Z,94895.16
2023-02-02T08:39:53.165Z,94887.75
2023-02-02T08:42:21.720Z,94880.48
2023-02-02T08:46:00.355Z,94866.52
2023-02-02T08:47:42.700Z,94860.04
2023-02-02T08:50:13.519Z,94885.59
2023-02-02T08:52:44.461Z,94900.02
2023-02-02T08:55:16.843Z,94906.66
2023-02-02T08:57:47.870Z,94906.20
2023-02-02T09:00:20.746Z,94909.16
2023-02-02T09:02:52.805Z,94919.86
2023-02-02T09:05:24.387Z,94923.67
2023-02-02T09:07:55.311Z,94931.75
2023-02-02T09:10:25.943Z,94943.59
2023-02-02T09:12:57.590Z,94947.52
2023-02-02T09:15:29.662Z,94935.60
2023-02-02T09:18:00.395Z,94923.03
2023-02-02T09:20:33.811Z,94914.73
2023-02-02T09:23:04.524Z,94925.48
2023-02-02T09:25:36.284Z,94919.30
2023-02-02T09:28:07.838Z,94897.91
2023-02-02T09:30:40.449Z,94893.14
2023-02-02T09:33:11.763Z,94895.17
2023-02-02T09:35:45.342Z,94903.09
2023-02-02T09:38:15.704Z,94910.30
2023-02-02T09:40:44.478Z,94922.54
2023-02-02T09:43:35.192Z,94937.48
2023-02-02T09:46:12.840Z,94947.23
2023-02-02T09:49:07.952Z,94967.20
2023-02-02T09:51:41.082Z,94968.44
2023-02-02T09:54:15.701Z,94979.03
2023-02-02T09:56:44.939Z,94986.19
2023-02-02T09:59:24.814Z,94990.83
2023-02-02T10:01:58.545Z,94991.77
2023-02-02T10:04:27.168Z,94991.67
2023-02-02T10:06:58.027Z,94991.87
2023-02-02T10:09:56.351Z,94988.04
2023-02-02T10:12:37.421Z,94982.64
2023-02-02T10:15:24.873Z,94994.20
2023-02-02T10:18:44.051Z,94991.39
2023-02-02T10:21:19.368Z,94990.23
2023-02-02T10:23:48.670Z,94997.56
2023-02-02T10:27:30.181Z,95003.48
2023-02-02T10:30:02.836Z,94970.80
2023-02-02T10:33:37.567Z,94990.14
2023-02-02T10:36:18.385Z,94962.04
2023-02-02T10:39:00.995Z,94964.19
2023-02-02T10:41:59.301Z,94951.25
2023-02-02T10:44:41.770Z,94946.63
2023-02-02T10:47:13.249Z,94952.83
2023-02-02T10:49:41.920Z,94966.71
2023-02-02T10:52:11.382Z,94981.83
2023-02-02T10:54:57.423Z,94998.70
2023-02-02T10:58:01.224Z,95018.98
2023-02-02T11:00:39.424Z,95040.77
2023-02-02T11:03:09.732Z,95065.21
2023-02-02T11:05:57.168Z,95083.23
2023-02-02T11:08:30.752Z,95095.70
2023-02-02T11:11:19.247Z,95102.45
2023-02-02T11:14:10.620Z,95095.98
2023-02-02T11:16:44.244Z,95111.13
2023-02-02T11:19:22.440Z,95144.29
2023-02-02T11:21:53.666Z,95190.34
2023-02-02T11:24:23.368Z,95211.17
2023-02-02T11:26:56.143Z,95227.98
2023-02-02T11:29:28.121Z,95241.52
2023-02-02T11:31:57.072Z,95260.73
2023-02-02T11:34:27.111Z,95286.25
2023-02-02T11:37:13.390Z,95305.84
2023-02-02T11:39:43.817Z,95335.98
2023-02-02T11:42:15.086Z,95358.57
2023-02-02T11:44:56.060Z,95364.85
2023-02-02T11:47:29.506Z,95383.13
2023-02-02T11:49:59.687Z,95398.96
2023-02-02T11:52:32.705Z,95418.11
2023-02-02T11:55:02.459Z,95450.11
2023-02-02T11:57:31.899Z,95484.51
2023-02-02T12:00:17.781Z,95519.98
2023-02-02T12:02:48.755Z,95556.83
2023-02-02T12:05:20.455Z,95607.70
2023-02-02T12:07:49.812Z,95659.63
2023-02-02T12:10:42.223Z,95738.89
2023-02-02T12:13:43.826Z,95811.03
2023-02-02T12:16:26.488Z,95877.70
2023-02-02T12:19:17.489Z,95936.48
2023-02-02T12:22:19.538Z,96000.88
2023-02-02T12:25:14.608Z,96067.34
2023-02-02T12:27:43.712Z,96137.89
2023-02-02T12:30:28.696Z,96199.05
2023-02-02T12:33:09.268Z,96234.52
2023-02-02T12:36:01.306Z,96262.54
2023-02-02T12:38:46.704Z,96287.67
2023-02-02T12:41:18.920Z,96308.84
2023-02-02T12:44:15.413Z,96331.45
2023-02-02T12:47:15.200Z,96347.55
2023-02-02T12:50:13.049Z,96366.36
2023-02-02T12:53:07.372Z,96385.85
2023-02-02T12:55:57.995Z,96406.27
2023-02-02T12:58:40.490Z,96421.20
2023-02-02T13:01:57.253Z,96434.39
2023-02-02T13:04:52.692Z,96437.86
2023-02-02T13:07:52.159Z,96449.81
2023-02-02T13:10:38.401Z,96448.22
2023-02-02T13:13:18.437Z,96457.16
2023-02-02T13:15:48.776Z,96470.02
2023-02-02T13:18:27.918Z,96477.67
2023-02-02T13:21:10.999Z,96481.16
2023-02-02T13:23:50.761Z,96486.16
2023-02-02T13:26:20.946Z,96489.29
2023-02-02T13:29:11.751Z,96492.08
2023-02-02T13:32:23.854Z,96490.60
2023-02-02T13:35:11.240Z,96493.34
2023-02-02T13:37:39.940Z,96511.97
2023-02-02T13:40:27.325Z,96527.45
2023-02-02T13:43:04.238Z,96522.86
2023-02-02T13:46:03.026Z,96530.89
2023-02-02T13:49:08.643Z,96533.64
2023-02-02T13:51:51.332Z,96539.49
2023-02-02T13:55:01.080Z,96556.81
2023-02-02T13:57:46.296Z,96552.66
2023-02-02T14:00:22.565Z,96575.93
2023-02-02T14:03:04.171Z,96584.56
2023-02-02T14:05:38.636Z,96586.93
2023-02-02T14:08:23.459Z,96599.73
2023-02-02T14:10:57.630Z,96604.75
2023-02-02T14:13:48.416Z,96617.10
2023-02-02T14:32:00.599Z,96191.02
2023-02-02T14:34:29.283Z,96212.45
2023-02-02T14:37:24.089Z,96299.79
2023-02-02T14:40:10.788Z,96355.83
2023-02-02T14:43:22.083Z,96401.75
2023-02-02T14:46:13.114Z,96445.78
2023-02-02T14:48:50.121Z,96484.68
2023-02-02T14:51:29.575Z,96523.77
2023-02-02T14:54:05.248Z,96557.16
2023-02-02T14:56:50.008Z,96582.95
2023-02-02T14:59:38.801Z,96599.52
2023-02-02T15:02:20.013Z,96620.14
2023-02-02T15:04:49.158Z,96635.24
2023-02-02T15:07:23.904Z,96659.46
2023-02-02T15:09:56.782Z,96671.83
2023-02-02T15:12:40.124Z,96690.08
2023-02-02T18:25:53.264Z,97982.29
2023-02-02T18:28:21.845Z,97878.94
2023-02-02T18:30:50.691Z,97807.60
2023-02-02T18:33:20.273Z,97685.23
2023-02-02T18:35:49.379Z,97523.63
2023-02-02T18:38:19.894Z,97341.05
2023-02-02T18:40:56.281Z,97162.82
2023-02-02T18:43:26.911Z,96936.25
2023-02-02T18:46:02.799Z,96748.73
2023-02-02T18:48:31.959Z,96567.16
2023-02-02T18:51:07.537Z,96466.20
2023-02-02T18:53:36.475Z,96380.67
2023-02-02T18:56:08.921Z,96345.10
2023-02-02T18:58:38.501Z,96315.45
2023-02-02T19:01:10.944Z,96305.63
2023-02-02T19:03:40.582Z,96297.14
2023-02-02T19:06:28.056Z,96299.40
2023-02-02T19:09:00.624Z,96287.44
2023-02-02T19:11:43.236Z,96303.11
2023-02-02T19:14:15.848Z,96301.95
2023-02-02T19:16:46.452Z,96308.23
2023-02-02T19:19:25.252Z,96310.65
2023-02-02T19:21:56.401Z,96309.84
2023-02-02T19:24:26.917Z,96315.27
2023-02-02T19:26:55.717Z,96320.67
2023-02-02T19:29:26.522Z,96328.30
2023-02-02T19:32:07.633Z,96336.04
2023-02-02T19:34:36.415Z,96335.13
2023-02-02T19:37:20.418Z,96348.97
2023-02-02T19:39:49.116Z,96351.09
2023-02-02T19:42:18.556Z,96366.59
2023-02-02T19:44:50.452Z,96373.98
2023-02-02T19:47:28.340Z,96379.42
2023-02-02T19:49:56.891Z,96385.96
2023-02-02T19:52:26.009Z,96402.48
2023-02-02T19:54:54.575Z,96408.89
2023-02-02T19:57:36.969Z,96422.02
2023-02-02T20:00:22.703Z,96427.73
2023-02-02T20:02:59.988Z,96437.27
2023-02-02T20:05:33.113Z,96450.52
2023-02-02T20:08:06.218Z,96465.19
2023-02-02T20:10:39.543Z,96477.04
2023-02-02T20:13:31.785Z,96489.91
2023-02-02T20:16:04.384Z,96490.68
2023-02-02T20:18:44.900Z,96510.51
2023-02-02T20:21:26.776Z,96515.73
2023-02-02T20:23:55.180Z,96522.73
2023-02-02T20:26:26.160Z,96535.39
2023-02-02T20:28:56.627Z,96543.25
2023-02-02T20:31:35.837Z,96550.91
2023-02-02T20:34:33.134Z,96552.77
2023-02-02T20:37:16.421Z,96560.39
2023-02-02T20:39:50.423Z,96567.98
2023-02-02T20:42:19.258Z,96585.42
2023-02-02T20:44:47.849Z,96601.56
2023-02-02T20:47:16.529Z,96606.70
2023-02-02T20:49:45.216Z,96617.41
2023-02-02T20:52:22.098Z,96626.27
2023-02-02T20:54:51.510Z,96635.14
2023-02-02T20:57:20.116Z,96649.54
2023-02-02T20:59:48.616Z,96664.23
2023-02-02T21:02:19.758Z,96675.19
2023-02-02T21:04:48.450Z,96676.30
2023-02-02T21:07:17.892Z,96690.15
2023-02-02T21:09:47.761Z,96694.41
2023-02-02T21:12:16.607Z,96699.84
2023-02-02T21:14:45.586Z,96707.15
2023-02-02T21:17:16.031Z,96719.36
2023-02-02T21:19:45.525Z,96720.03
2023-02-02T21:22:14.400Z,96726.16
2023-02-02T21:24:43.826Z,96735.67
2023-02-02T21:27:12.313Z,96740.39
2023-02-02T21:29:40.989Z,96751.30
2023-02-02T21:32:09.546Z,96756.02
2023-02-02T21:34:38.417Z,96767.12
2023-02-02T21:37:12.599Z,96771.73
2023-02-02T21:40:00.246Z,96776.92
2023-02-02T21:42:28.614Z,96785.79
2023-02-02T21:44:58.524Z,96798.86
2023-02-02T21:47:37.031Z,96807.73
2023-02-02T21:50:16.465Z,96812.42
2023-02-02T21:52:45.030Z,96825.39
2023-02-02T21:55:37.476Z,96837.09
2023-02-02T21:58:27.971Z,96842.98
2023-02-02T22:01:02.913Z,96851.08
2023-02-02T22:03:35.166Z,96865.30
2023-02-02T22:06:28.625Z,96871.38
